• Join FlightAware (Why Join?)
  • Login
  • US Flag 
Rudolph Flight #1: Scheduled 
08:05PM EST


 

Airport Tracker/Info


-or-


 

Live Flight TrackerFlight Track Log ✈ N2710W ✈ 30-Jun-2013 ✈ KGBD - KCMI

Flight Track Log - Related Links

Times and Time Zones

All times are in EDT time to prevent confusion due to time zone crossing. See the N2710W flight status page for this flight to view local times or setup timezone preferences in your user account.

Time Position Orientation Groundspeed Altitude Reporting Facility
EDT Latitude Longitude Course Direction KTS MPH feet Rate Location/Type
05:39PM 38.3753 -98.7397 75° East 87 100 5,300  Level Kansas City Center
05:41PM 38.3681 -98.6747 78° East  Level FlightAware Approximate
05:41PM 38.3869 -98.6761 78° East 90 104 6,500  Level Kansas City Center
05:42PM 38.3956 -98.6453 70° East 92 106 7,100 540 Climbing Kansas City Center
05:43PM 38.4017 -98.6083 78° East 89 102 7,700 480 Climbing Kansas City Center
05:44PM 38.4097 -98.5761 72° East 94 108 8,100 360 Climbing Kansas City Center
05:45PM 38.4081 -98.5530 75° East  Level Estimated
05:45PM 38.4161 -98.5431 76° East 96 110 8,500  Level Kansas City Center
05:47PM 38.4233 -98.5106 74° East 95 109 9,000 420 Climbing Kansas City Center
05:48PM 38.4308 -98.4725 76° East 108 124 9,400 360 Climbing Kansas City Center
05:49PM 38.4386 -98.4347 75° East 110 127 9,800 420 Climbing Kansas City Center
05:50PM 38.4464 -98.3964 75° East 111 128 10,300 480 Climbing Kansas City Center
05:51PM 38.4556 -98.3519 75° East 110 127 10,800 360 Climbing Kansas City Center
05:52PM 38.4628 -98.3153 76° East 108 124 11,100 60 Climbing Kansas City Center
05:53PM 38.4717 -98.2714 75° East 125 144 11,000 -60 Descending Kansas City Center
05:54PM 38.4817 -98.2222 75° East 140 161 11,000  Level Kansas City Center
05:55PM 38.4911 -98.1744 76° East 138 159 11,000  Level Kansas City Center
05:56PM 38.5008 -98.1275 75° East 137 158 11,000  Level Kansas City Center
05:58PM 38.5176 -98.0407 76° East  Level FlightAware Approximate
05:58PM 38.5214 -98.0239 76° East 137 158 11,000  Level Kansas City Center
05:59PM 38.5311 -97.9775 75° East 135 155 11,000  Level Kansas City Center
06:00PM 38.5403 -97.9311 76° East 135 155 11,000  Level Kansas City Center
06:01PM 38.5497 -97.8833 76° East 138 159 11,000  Level Kansas City Center
06:03PM 38.5689 -97.7878 76° East 140 161 11,000  Level Kansas City Center
06:04PM 38.5783 -97.7406 76° East 137 158 11,000  Level Kansas City Center
06:05PM 38.5897 -97.6850 75° East 134 154 11,000  Level Kansas City Center
06:06PM 38.5983 -97.6386 77° East 134 154 11,000  Level Kansas City Center
06:07PM 38.6081 -97.5939 74° East 131 151 11,000 -60 Level Kansas City Center
06:08PM 38.6167 -97.5475 77° East 133 153 10,900 -60 Descending Kansas City Center
06:09PM 38.6275 -97.4928 76° East 140 161 10,900  Level Kansas City Center
06:10PM 38.6372 -97.4472 75° East 139 160 11,000  Climbing Kansas City Center
06:11PM 38.6461 -97.3975 77° East 138 159 11,000  Level Kansas City Center
06:12PM 38.6564 -97.3489 75° East 136 157 11,000  Level Kansas City Center
06:13PM 38.6656 -97.2992 77° East 138 159 11,000  Level Kansas City Center
06:14PM 38.6756 -97.2486 76° East 141 162 11,000  Level Kansas City Center
06:15PM 38.6850 -97.1989 76° East 139 160 11,000  Level Kansas City Center
06:16PM 38.6944 -97.1522 75° East 140 161 11,000  Level Kansas City Center
06:17PM 38.7036 -97.1025 77° East 138 159 11,000  Level Kansas City Center
06:18PM 38.7131 -97.0528 76° East 136 157 11,000  Level Kansas City Center
06:20PM 38.7225 -97.0033 76° East 137 158 11,000  Level Kansas City Center
06:21PM 38.7339 -96.9528 74° East 142 163 11,000  Level Kansas City Center
06:22PM 38.7419 -96.9022 78° East 140 161 11,000  Level Kansas City Center
06:23PM 38.7508 -96.8553 76° East 140 161 11,000  Level Kansas City Center
06:24PM 38.7608 -96.8058 75° East 139 160 11,000  Level Kansas City Center
06:25PM 38.7694 -96.7561 77° East 137 158 11,000  Level Kansas City Center
06:26PM 38.7794 -96.7064 76° East 138 159 11,000  Level Kansas City Center
06:27PM 38.7881 -96.6578 77° East 136 157 11,000  Level Kansas City Center
06:28PM 38.7983 -96.6083 75° East 137 158 11,000 -60 Level Kansas City Center
06:29PM 38.8067 -96.5619 77° East 140 161 10,900 -60 Descending Kansas City Center
06:30PM 38.8156 -96.5100 78° East 143 165 10,900  Level Kansas City Center
06:31PM 38.8253 -96.4600 76° East 138 159 10,900  Level Kansas City Center
06:32PM 38.8339 -96.4103 77° East 138 159 10,900  Level Kansas City Center
06:33PM 38.8436 -96.3628 75° East 134 154 11,000  Climbing Kansas City Center
06:34PM 38.8528 -96.3150 76° East 132 152 11,000  Level Kansas City Center
06:35PM 38.8611 -96.2697 77° East 134 154 11,000  Level Kansas City Center
06:36PM 38.8697 -96.2203 77° East 135 155 11,000  Level Kansas City Center
06:37PM 38.8783 -96.1714 77° East 134 154 11,000  Level Kansas City Center
06:38PM 38.8872 -96.1264 76° East 134 154 11,000  Level Kansas City Center
06:39PM 38.8961 -96.0728 78° East 136 157 11,000  Level Kansas City Center
06:41PM 38.9060 -96.0022 80° East  Level FlightAware Approximate
06:41PM 38.9131 -95.9833 80° East 136 157 11,000  Level Kansas City Center
06:42PM 38.9228 -95.9300 77° East 135 155 11,000  Level Kansas City Center
06:43PM 38.9300 -95.8861 78° East 134 154 11,000  Level Kansas City Center
06:44PM 38.9400 -95.8350 76° East 133 153 11,000  Level Kansas City Center
06:45PM 38.9483 -95.7894 77° East 138 159 11,000  Level Kansas City Center
06:46PM 38.9572 -95.7358 78° East 135 155 11,000  Level Kansas City Center
06:47PM 38.9664 -95.6894 76° East 138 159 11,000  Level Kansas City Center
06:48PM 38.9756 -95.6361 78° East 138 159 11,000  Level Kansas City Center
06:49PM 38.9836 -95.5900 77° East 137 158 11,000  Level Kansas City Center
06:51PM 39.0000 -95.5000 77° East 139 160 11,000  Level Kansas City TRACON
06:52PM 39.0000 -95.4500 90° East 138 159 11,000  Level Kansas City TRACON
06:53PM 39.0167 -95.4000 67° East 139 160 11,000  Level Kansas City TRACON
06:54PM 39.0167 -95.3500 90° East 137 158 11,000  Level Kansas City TRACON
06:55PM 39.0333 -95.3000 67° East 134 154 11,000  Level Kansas City TRACON
06:56PM 39.0500 -95.2667 57° Northeast 136 157 11,000  Level Kansas City TRACON
06:57PM 39.0500 -95.2167 90° East 139 160 11,100  Climbing Kansas City TRACON
06:58PM 39.0667 -95.1667 67° East 139 160 11,100  Level Kansas City TRACON
06:59PM 39.0667 -95.1167 90° East 138 159 11,100  Level Kansas City TRACON
07:00PM 39.0833 -95.0667 67° East 141 162 11,100  Level Kansas City TRACON
07:01PM 39.0833 -95.0167 90° East 139 160 11,100  Level Kansas City TRACON
07:03PM 39.0964 -94.9475 76° East 138 159 11,100 -60 Level Kansas City Center
07:04PM 39.1050 -94.8939 78° East 137 158 11,000 -60 Descending Kansas City Center
07:05PM 39.1128 -94.8481 78° East 137 158 11,000  Level Kansas City Center
07:06PM 39.1228 -94.7953 76° East 135 155 11,000  Level Kansas City Center
07:07PM 39.1303 -94.7511 78° East 132 152 11,000  Level Kansas City Center
07:08PM 39.1389 -94.6989 78° East 133 153 11,000  Level Kansas City Center
07:09PM 39.1464 -94.6539 78° East 134 154 11,000  Level Kansas City Center
07:10PM 39.1550 -94.6022 78° East 133 153 11,000  Level Kansas City Center
07:11PM 39.1625 -94.5581 78° East 132 152 11,000  Level Kansas City Center
07:12PM 39.1708 -94.5061 78° East 132 152 11,000  Level Kansas City Center
07:13PM 39.1794 -94.4633 75° East 130 150 11,100  Climbing Kansas City Center
07:14PM 39.1858 -94.4169 80° East 134 154 11,000  Descending Kansas City Center
07:15PM 39.1950 -94.3650 77° East 134 154 11,100  Climbing Kansas City Center
07:16PM 39.2025 -94.3214 77° East 132 152 11,100  Level Kansas City Center
07:17PM 39.2111 -94.2692 78° East 133 153 11,100  Level Kansas City Center
07:18PM 39.2189 -94.2250 77° East 132 152 11,100  Level Kansas City Center
07:19PM 39.2272 -94.1739 78° East 130 150 11,100  Level Kansas City Center
07:20PM 39.2339 -94.1308 79° East 127 146 11,100  Level Kansas City Center
07:21PM 39.2417 -94.0806 79° East 128 147 11,100 240 Level Kansas City Center
07:22PM 39.2483 -94.0417 78° East 117 135 11,600 360 Climbing Kansas City Center
07:23PM 39.2539 -94.0056 79° East 109 125 11,900 240 Climbing Kansas City Center
07:24PM 39.2622 -93.9633 76° East 109 125 12,100  Climbing Kansas City Center
07:26PM 39.2678 -93.9217 80° East 124 143 12,000 -60 Descending Kansas City Center
07:27PM 39.2767 -93.8700 77° East 131 151 12,000  Level Kansas City Center
07:28PM 39.2847 -93.8264 77° East 131 151 12,000  Level Kansas City Center
07:29PM 39.2919 -93.7736 80° East 132 152 12,000  Level Kansas City Center
07:30PM 39.3014 -93.7269 75° East 130 150 12,000  Level Kansas City Center
07:31PM 39.3072 -93.6819 80° East 129 148 12,000  Level Kansas City Center
07:32PM 39.3144 -93.6375 78° East 129 148 12,000  Level Kansas City Center
07:33PM 39.3214 -93.5931 79° East 128 147 12,000  Level Kansas City Center
07:34PM 39.3292 -93.5489 77° East 127 146 12,000  Level Kansas City Center
07:35PM 39.3367 -93.5053 77° East 126 145 12,000  Level Kansas City Center
07:36PM 39.3439 -93.4522 80° East 127 146 12,000  Level Kansas City Center
07:37PM 39.3503 -93.4072 80° East 127 146 12,000  Level Kansas City Center
07:38PM 39.3578 -93.3681 76° East 121 139 12,000  Level Kansas City Center
07:39PM 39.3658 -93.3250 76° East 123 142 12,100  Climbing Kansas City Center
07:40PM 39.3719 -93.2808 80° East 125 144 12,100  Level Kansas City Center
07:41PM 39.3803 -93.2278 78° East 127 146 12,100  Level Kansas City Center
07:42PM 39.3861 -93.1844 80° East 125 144 12,100  Level Kansas City Center
07:43PM 39.3944 -93.1394 77° East 128 147 12,100  Level Kansas City Center
07:44PM 39.4003 -93.0958 80° East 126 145 12,100 -60 Level Kansas City Center
07:45PM 39.4064 -93.0494 80° East 130 150 12,000 -60 Descending Kansas City Center
07:46PM 39.4131 -93.0033 79° East 132 152 12,000  Level Kansas City Center
07:47PM 39.4211 -92.9497 79° East 129 148 12,000  Level Kansas City Center
07:48PM 39.4283 -92.9064 78° East 127 146 12,000  Level Kansas City Center
07:49PM 39.4356 -92.8600 79° East 130 150 12,000  Level Kansas City Center
07:50PM 39.4422 -92.8156 79° East 128 147 12,000 -240 Level Kansas City Center
07:51PM 39.4494 -92.7669 79° East 133 153 11,600 -480 Descending Kansas City Center
07:52PM 39.4561 -92.7058 82° East 142 163 11,100 -360 Descending Kansas City Center
07:53PM 39.4639 -92.6531 79° East 148 170 10,900 -120 Descending Kansas City Center
07:54PM 39.4728 -92.6072 76° East 141 162 10,900  Level Kansas City Center
07:55PM 39.4814 -92.5622 76° East 135 155 10,900  Level Kansas City Center
07:56PM 39.4883 -92.5181 78° East 131 151 10,900  Level Kansas City Center
07:57PM 39.4939 -92.4711 81° East 131 151 10,900  Level Kansas City Center
07:58PM 39.5028 -92.4164 78° East 131 151 10,900  Level Kansas City Center
07:59PM 39.5092 -92.3694 80° East 133 153 10,900  Level Kansas City Center
08:01PM 39.5167 -92.3236 78° East 132 152 11,000  Climbing Kansas City Center
08:02PM 39.5225 -92.2761 81° East 133 153 11,000  Level Kansas City Center
08:03PM 39.5294 -92.2306 79° East 132 152 11,000  Level Kansas City Center
08:04PM 39.5386 -92.1753 78° East 132 152 11,000  Level Kansas City Center
08:05PM 39.5453 -92.1278 80° East 134 154 11,000  Level Kansas City Center
08:06PM 39.5514 -92.0819 80° East 133 153 11,000  Level Kansas City Center
08:07PM 39.5586 -92.0358 79° East 132 152 11,000  Level Kansas City Center
08:08PM 39.5656 -91.9878 79° East 134 154 11,000  Level Kansas City Center
08:09PM 39.5722 -91.9400 80° East 135 155 11,000  Level Kansas City Center
08:10PM 39.5800 -91.8847 80° East 134 154 11,000  Level Kansas City Center
08:11PM 39.5872 -91.8367 79° East 135 155 11,000  Level Kansas City Center
08:12PM 39.5922 -91.7900 82° East 134 154 11,000  Level Kansas City Center
08:13PM 39.5983 -91.7408 81° East 136 157 11,000  Level Kansas City Center
08:14PM 39.6014 -91.6956 85° East 132 152 11,000  Level Kansas City Center
08:15PM 39.6072 -91.6386 82° East 132 152 11,000  Level Kansas City Center
08:16PM 39.6108 -91.5922 84° East 133 153 11,000  Level Kansas City Center
08:17PM 39.6167 -91.5439 81° East 135 155 11,000  Level Kansas City Center
08:18PM 39.6208 -91.4972 83° East 133 153 11,000  Level Kansas City Center
08:19PM 39.6267 -91.4494 81° East 134 154 11,000  Level Kansas City Center
08:20PM 39.6314 -91.4019 83° East 134 154 11,000  Level Kansas City Center
08:21PM 39.6372 -91.3431 83° East 136 157 11,000  Level Kansas City Center
08:22PM 39.6400 -91.2989 85° East 136 157 11,000  Level Kansas City Center
08:23PM 39.6439 -91.2503 84° East 136 157 11,000  Level Kansas City Center
08:24PM 39.6453 -91.2017 88° East 136 157 11,000  Level Kansas City Center
08:25PM 39.6461 -91.1447 89° East 133 153 11,000  Level Kansas City Center
08:26PM 39.6492 -91.0953 85° East 136 157 11,000  Level Kansas City Center
08:27PM 39.6517 -91.0461 86° East 137 158 11,000  Level Kansas City Center
08:28PM 39.6533 -90.9967 87° East 137 158 11,000  Level Kansas City Center
08:29PM 39.6489 -90.9469 97° East 139 160 11,000  Level Kansas City Center
08:30PM 39.6414 -90.8942 100° East 145 167 11,000  Level Kansas City Center
08:31PM 39.6278 -90.8458 110° East 146 168 11,000 -120 Level Kansas City Center
08:32PM 39.6078 -90.7881 114° Southeast 152 175 10,800 -60 Descending Kansas City Center
08:33PM 39.6169 -90.7358 77° East 157 181 10,900 60 Climbing Kansas City Center
08:34PM 39.6258 -90.6925 75° East 138 159 11,000  Climbing Kansas City Center
08:35PM 39.6344 -90.6469 76° East 131 151 11,000  Level Kansas City Center
08:36PM 39.6436 -90.6022 75° East 129 148 11,000  Level Kansas City Center
08:38PM 39.6514 -90.5564 78° East 130 150 11,000  Level Kansas City Center
08:39PM 39.6592 -90.5111 77° East 130 150 11,000  Level Kansas City Center
08:40PM 39.6678 -90.4658 76° East 129 148 11,000  Level Kansas City Center
08:41PM 39.6775 -90.4100 77° East 130 150 11,000  Level Kansas City Center
08:42PM 39.6861 -90.3631 77° East 132 152 11,000  Level Kansas City Center
08:43PM 39.6953 -90.3147 76° East 134 154 11,000  Level Kansas City Center
08:44PM 39.7031 -90.2653 78° East 137 158 11,000  Level Kansas City Center
08:45PM 39.7117 -90.2181 77° East 137 158 11,000  Level Kansas City Center
08:46PM 39.7200 -90.1728 77° East 134 154 11,000  Level Kansas City Center
08:47PM 39.7286 -90.1269 76° East 132 152 11,000 -60 Level Kansas City Center
08:48PM 39.7358 -90.0783 79° East 133 153 10,900 -300 Descending Kansas City Center
08:49PM 39.7464 -90.0186 77° East 136 157 10,400 -480 Descending Kansas City Center
08:50PM 39.7556 -89.9628 78° East 144 166 10,000 -360 Descending Kansas City Center
08:51PM 39.7653 -89.9106 76° East 148 170 9,700 -420 Descending Kansas City Center
08:52PM 39.7747 -89.8578 77° East 149 171 9,200 -480 Descending Kansas City Center
08:53PM 39.7836 -89.8064 77° East 149 171 8,800 -420 Descending Kansas City Center
08:54PM 39.7922 -89.7536 78° East 149 171 8,400 -420 Descending Kansas City Center
08:55PM 39.8017 -89.7025 76° East 147 169 8,000 -360 Descending Kansas City Center
08:56PM 39.8103 -89.6536 77° East 145 167 7,700 -300 Descending Kansas City Center
08:57PM 39.8175 -89.6050 79° East 142 163 7,500 -300 Descending Kansas City Center
08:58PM 39.8264 -89.5478 79° East 138 159 7,200 -300 Descending Kansas City Center
08:59PM 39.8358 -89.5017 75° East 136 157 7,000 -120 Descending Kansas City Center
09:00PM 39.8442 -89.4572 76° East 132 152 7,000 -60 Level Kansas City Center
09:01PM 39.8514 -89.4136 78° East 128 147 6,900 -240 Descending Kansas City Center
09:02PM 39.8592 -89.3669 78° East 128 147 6,600 -300 Descending Kansas City Center
09:03PM 39.8664 -89.3200 79° East 130 150 6,300 -300 Descending Kansas City Center
09:04PM 39.8750 -89.2708 77° East 133 153 6,100 -240 Descending Kansas City Center
09:05PM 39.8833 -89.2214 78° East 137 158 5,900 -240 Descending Kansas City Center
09:06PM 39.8917 -89.1756 77° East 135 155 5,700 -300 Descending Kansas City Center
09:07PM 39.9014 -89.1181 78° East 135 155 5,400 -300 Descending Kansas City Center
09:08PM 39.9086 -89.0714 79° East 134 154 5,200 -240 Descending Kansas City Center
09:09PM 39.9178 -89.0233 76° East 135 155 5,000 -240 Descending Chicago Center
09:10PM 39.9253 -88.9761 78° East 135 155 4,800 -240 Descending Chicago Center
09:11PM 39.9328 -88.9283 78° East 135 155 4,600 -240 Descending Chicago Center
09:12PM 39.9428 -88.8714 77° East 135 155 4,400 -300 Descending Chicago Center
09:13PM 39.9503 -88.8250 78° East 134 154 4,100 -240 Descending Chicago Center
09:15PM 39.9650 -88.7375 78° East 135 155 3,700 -300 Descending Kansas City Center
09:16PM 39.9736 -88.6797 79° East 136 157 3,300 -300 Descending Kansas City Center
09:18PM 39.9825 -88.6344 76° East 134 154 3,100 -180 Descending Chicago Center
09:19PM 39.9894 -88.5894 79° East 130 150 3,000 -120 Descending Chicago Center